KATL/ATL METAR and TAF weather

Enter ICAO airport designator
Station Type Date Time Source
KATL METAR 2018/12/10 19:17 UTC NOAA

KATL 101917Z 31007KT 3SM -RA BR BKN007 BKN015 OVC020 06/04 A3008 RMK AO2 SFC VIS 4 RAB11 P0000 T00560039


Station Type Date Time Source
KATL Decoded METAR 2018/12/10 19:17 UTC NOAA

HARTSFIELD-JACKSON ATLANTA, GA, United States (KATL) 33-39N 84-26W
Dec 10, 2018 - 02:17 PM EST / 2018.12.10 1917 UTC
Wind: from the NW (310 degrees) at 8 MPH (7 KT):0
Visibility: 3 mile(s):0
Sky conditions: overcast
Weather: light rain; mist
Precipitation last hour: A trace
Temperature: 42.1 F (5.6 C)
Dew Point: 39.0 F (3.9 C)
Relative Humidity: 88%
Pressure (altimeter): 30.08 in. Hg (1018 hPa)
ob: KATL 101917Z 31007KT 3SM -RA BR BKN007 BKN015 OVC020 06/04 A3008 RMK AO2 SFC VIS 4 RAB11 P0000 T00560039
cycle: 19

Station Type Date Time Source
KATL TAF 2018/12/10 18:42 UTC NOAA

TAF KATL 101740Z 1018/1124 33005KT 6SM -DZ BR OVC006
FM102100 35007KT 6SM -SHRA BKN008 OVC012
FM110200 32005KT P6SM VCSH BKN015 OVC030
FM110800 33005KT P6SM SCT025 BKN080
FM111200 30006KT P6SM SCT120
FM111700 31005KT P6SM SKC


Example: see airport list